createdAt,value
2019-05-01T00:02:05.885Z,101660.68
2019-05-01T00:05:06.203Z,101657.72
2019-05-01T00:07:36.978Z,101653.27
2019-05-01T00:10:07.148Z,101659.69
2019-05-01T00:12:37.489Z,101661.61
2019-05-01T00:15:06.958Z,101658.62
2019-05-01T00:17:36.890Z,101658.15
2019-05-01T00:20:06.371Z,101653.78
2019-05-01T00:22:35.643Z,101655.81
2019-05-01T00:25:05.211Z,101648.61
2019-05-01T00:27:35.735Z,101648.64
2019-05-01T00:30:07.150Z,101658.22
2019-05-01T00:32:38.066Z,101654.61
2019-05-01T00:35:07.400Z,101653.73
2019-05-01T00:37:36.739Z,101654.70
2019-05-01T00:40:06.184Z,101653.40
2019-05-01T00:42:35.392Z,101644.02
2019-05-01T00:45:04.738Z,101647.47
2019-05-01T00:47:34.102Z,101643.63
2019-05-01T00:50:03.378Z,101642.66
2019-05-01T00:52:32.622Z,101643.77
2019-05-01T00:55:19.734Z,101649.52
2019-05-01T00:57:58.490Z,101647.37
2019-05-01T01:00:45.980Z,101642.45
2019-05-01T01:03:15.182Z,101646.84
2019-05-01T01:05:44.352Z,101643.53
2019-05-01T01:08:13.557Z,101636.03
2019-05-01T01:10:42.743Z,101635.60
2019-05-01T01:13:11.970Z,101634.98
2019-05-01T01:15:41.137Z,101637.88
2019-05-01T01:18:10.399Z,101634.88
2019-05-01T01:20:39.611Z,101627.58
2019-05-01T01:23:08.762Z,101620.92
2019-05-01T01:25:37.919Z,101622.63
2019-05-01T01:28:07.125Z,101614.97
2019-05-01T01:30:36.283Z,101614.61
2019-05-01T01:33:05.446Z,101612.30
2019-05-01T01:35:34.640Z,101610.48
2019-05-01T01:38:03.896Z,101607.25
2019-05-01T01:40:33.332Z,101602.81
2019-05-01T01:43:22.790Z,101605.72
2019-05-01T01:45:54.869Z,101596.23
2019-05-01T01:48:24.136Z,101596.40
2019-05-01T01:50:53.450Z,101587.08
2019-05-01T01:53:22.906Z,101584.51
2019-05-01T01:55:52.158Z,101590.43
2019-05-01T01:58:22.306Z,101581.05
2019-05-01T02:01:19.555Z,101586.95
2019-05-01T02:03:53.238Z,101580.33
2019-05-01T02:06:22.420Z,101576.03
2019-05-01T02:08:56.664Z,101570.17
2019-05-01T02:11:22.642Z,101572.91
2019-05-01T02:13:55.843Z,101566.72
2019-05-01T02:16:25.465Z,101567.56
2019-05-01T02:18:55.183Z,101566.33
2019-05-01T02:21:24.390Z,101565.87
2019-05-01T02:23:53.619Z,101567.45
2019-05-01T02:26:24.584Z,101571.61
2019-05-01T02:29:04.603Z,101562.65
2019-05-01T02:31:39.701Z,101565.94
2019-05-01T02:34:09.246Z,101564.24
2019-05-01T02:36:38.577Z,101570.56
2019-05-01T02:39:10.055Z,101557.68
2019-05-01T02:41:41.914Z,101562.35
2019-05-01T02:44:22.794Z,101558.12
2019-05-01T02:46:52.756Z,101554.14
2019-05-01T02:49:45.787Z,101559.02
2019-05-01T02:52:15.376Z,101558.67
2019-05-01T02:54:46.560Z,101555.74
2019-05-01T02:57:18.091Z,101551.16
2019-05-01T02:59:49.844Z,101548.59
2019-05-01T03:02:19.994Z,101551.55
2019-05-01T03:04:49.758Z,101549.02
2019-05-01T03:07:19.157Z,101544.27
2019-05-01T03:09:48.319Z,101542.48
2019-05-01T03:12:19.032Z,101539.97
2019-05-01T03:14:49.687Z,101541.27
2019-05-01T03:17:36.744Z,101536.55
2019-05-01T03:20:21.679Z,101536.36
2019-05-01T03:23:10.414Z,101531.59
2019-05-01T03:25:39.768Z,101528.52
2019-05-01T03:28:09.103Z,101527.05
2019-05-01T03:30:38.395Z,101524.41
2019-05-01T03:33:07.549Z,101520.98
2019-05-01T03:35:36.752Z,101522.73
2019-05-01T03:38:05.906Z,101518.36
2019-05-01T03:40:35.095Z,101525.47
2019-05-01T03:43:04.493Z,101515.58
2019-05-01T03:45:34.445Z,101509.65
2019-05-01T03:48:04.283Z,101518.97
2019-05-01T03:50:33.581Z,101525.12
2019-05-01T03:53:03.169Z,101516.42
2019-05-01T03:55:32.524Z,101519.97
2019-05-01T03:58:02.239Z,101523.72
2019-05-01T04:00:44.258Z,101519.39
2019-05-01T04:03:26.605Z,101519.09
2019-05-01T04:05:55.861Z,101514.72
2019-05-01T04:08:25.876Z,101524.41
2019-05-01T04:10:55.692Z,101521.41
2019-05-01T04:13:25.027Z,101522.25
2019-05-01T04:15:54.630Z,101518.23
2019-05-01T04:18:24.407Z,101519.86
2019-05-01T04:20:53.602Z,101517.27
2019-05-01T04:23:22.910Z,101517.66
2019-05-01T04:25:52.180Z,101518.25
2019-05-01T04:28:49.713Z,101518.30
2019-05-01T04:31:36.604Z,101523.92
2019-05-01T04:34:15.018Z,101518.70
2019-05-01T04:36:47.419Z,101514.73
2019-05-01T04:39:16.612Z,101516.69
2019-05-01T04:41:45.917Z,101523.66
2019-05-01T04:44:15.288Z,101527.23
2019-05-01T04:46:44.444Z,101524.41
2019-05-01T04:49:13.580Z,101522.64
2019-05-01T04:51:42.883Z,101521.05
2019-05-01T04:54:12.078Z,101527.04
2019-05-01T04:56:41.328Z,101526.68
2019-05-01T04:59:10.666Z,101527.28
2019-05-01T05:01:57.999Z,101526.20
2019-05-01T05:04:28.199Z,101523.58
2019-05-01T05:06:57.453Z,101523.58
2019-05-01T05:09:46.607Z,101529.20
2019-05-01T05:12:23.107Z,101530.77
2019-05-01T05:14:56.064Z,101534.22
2019-05-01T05:17:25.375Z,101531.61
2019-05-01T05:19:54.568Z,101526.97
2019-05-01T05:22:24.016Z,101527.28
2019-05-01T05:24:53.962Z,101529.97
2019-05-01T05:27:24.760Z,101528.20
2019-05-01T05:29:57.281Z,101534.12
2019-05-01T05:32:27.509Z,101534.86
2019-05-01T05:34:58.176Z,101538.67
2019-05-01T05:37:32.429Z,101531.99
2019-05-01T05:40:03.111Z,101531.38
2019-05-01T05:42:32.501Z,101536.62
2019-05-01T05:45:01.826Z,101531.99
2019-05-01T05:47:31.015Z,101528.27
2019-05-01T05:50:00.225Z,101530.83
2019-05-01T05:52:41.425Z,101531.28
2019-05-01T05:55:16.422Z,101526.37
2019-05-01T05:58:16.697Z,101529.52
2019-05-01T06:01:16.751Z,101529.44
2019-05-01T06:04:25.759Z,101530.55
2019-05-01T06:07:16.460Z,101529.66
2019-05-01T06:09:52.898Z,101532.02
2019-05-01T06:12:46.246Z,101527.28
2019-05-01T06:15:31.438Z,101533.95
2019-05-01T06:18:08.180Z,101536.77
2019-05-01T06:20:44.261Z,101533.73
2019-05-01T06:23:34.414Z,101537.27
2019-05-01T06:26:23.248Z,101530.75
2019-05-01T06:28:55.868Z,101528.61
2019-05-01T06:31:25.131Z,101528.08
2019-05-01T06:33:54.958Z,101532.81
2019-05-01T06:36:24.435Z,101533.70
2019-05-01T06:38:53.986Z,101532.26
2019-05-01T06:41:23.461Z,101530.30
2019-05-01T06:44:04.051Z,101531.07
2019-05-01T06:46:40.638Z,101531.16
2019-05-01T06:49:35.189Z,101524.38
2019-05-01T06:52:05.771Z,101528.83
2019-05-01T06:54:36.764Z,101523.20
2019-05-01T06:57:06.597Z,101526.37
2019-05-01T06:59:37.616Z,101526.79
2019-05-01T07:02:07.348Z,101515.76
2019-05-01T07:04:38.086Z,101521.80
2019-05-01T07:07:24.056Z,101514.87
2019-05-01T07:09:38.684Z,101521.99
2019-05-01T07:12:12.564Z,101517.02
2019-05-01T07:14:47.142Z,101522.08
2019-05-01T07:17:14.848Z,101518.75
2019-05-01T07:20:02.129Z,101516.64
2019-05-01T07:22:31.491Z,101512.41
2019-05-01T07:25:04.163Z,101522.56
2019-05-01T07:27:32.190Z,101524.84
2019-05-01T07:30:09.927Z,101526.30
2019-05-01T07:32:41.199Z,101521.94
2019-05-01T07:35:10.396Z,101517.83
2019-05-01T07:37:39.864Z,101519.78
2019-05-01T07:40:09.282Z,101514.30
2019-05-01T07:42:43.772Z,101518.19
2019-05-01T07:45:43.511Z,101516.52
2019-05-01T07:48:10.760Z,101519.62
2019-05-01T07:50:40.342Z,101517.02
2019-05-01T07:53:09.547Z,101513.49
2019-05-01T07:55:39.004Z,101521.20
2019-05-01T07:58:10.340Z,101526.70
2019-05-01T08:01:02.955Z,101523.78
2019-05-01T08:03:33.318Z,101525.06
2019-05-01T08:06:02.473Z,101522.48
2019-05-01T08:08:31.650Z,101526.55
2019-05-01T08:11:04.977Z,101520.72
2019-05-01T08:13:34.997Z,101524.89
2019-05-01T08:16:07.106Z,101525.78
2019-05-01T08:18:43.701Z,101525.03
2019-05-01T08:21:31.853Z,101521.69
2019-05-01T08:24:01.676Z,101525.88
2019-05-01T08:26:30.908Z,101528.16
2019-05-01T08:29:24.107Z,101523.58
2019-05-01T08:32:15.089Z,101522.78
2019-05-01T08:34:49.222Z,101521.73
2019-05-01T08:37:17.912Z,101521.75
2019-05-01T08:39:46.135Z,101522.31
2019-05-01T08:42:15.520Z,101522.80
2019-05-01T08:44:59.940Z,101519.48
2019-05-01T08:47:31.706Z,101514.77
2019-05-01T08:50:06.996Z,101517.70
2019-05-01T08:52:36.191Z,101518.80
2019-05-01T08:55:09.341Z,101515.09
2019-05-01T08:57:39.290Z,101513.67
2019-05-01T09:00:08.335Z,101513.51
2019-05-01T09:02:41.624Z,101515.37
2019-05-01T09:05:27.794Z,101504.79
2019-05-01T09:07:40.665Z,101501.41
2019-05-01T09:10:10.000Z,101498.41
2019-05-01T09:12:42.653Z,101503.20
2019-05-01T09:15:12.538Z,101500.05
2019-05-01T09:17:41.039Z,101503.29
2019-05-01T09:20:10.314Z,101498.66
2019-05-01T09:22:39.563Z,101498.83
2019-05-01T09:25:10.445Z,101498.09
2019-05-01T09:27:59.492Z,101494.05
2019-05-01T09:30:39.124Z,101491.52
2019-05-01T09:33:08.274Z,101484.27
2019-05-01T09:35:40.140Z,101485.71
2019-05-01T09:38:08.515Z,101492.91
2019-05-01T09:40:37.672Z,101494.19
2019-05-01T09:43:06.828Z,101484.39
2019-05-01T09:45:36.029Z,101482.55
2019-05-01T09:48:05.821Z,101480.02
2019-05-01T09:50:36.663Z,101477.22
2019-05-01T09:53:13.920Z,101482.62
2019-05-01T09:56:03.176Z,101474.02
2019-05-01T09:58:32.574Z,101477.96
2019-05-01T10:01:01.792Z,101474.50
2019-05-01T10:03:31.189Z,101471.98
2019-05-01T10:06:00.377Z,101466.12
2019-05-01T10:08:29.556Z,101465.68
2019-05-01T10:10:59.957Z,101463.87
2019-05-01T10:13:29.748Z,101460.98
2019-05-01T10:15:58.941Z,101462.67
2019-05-01T10:18:28.107Z,101462.39
2019-05-01T10:20:57.356Z,101464.31
2019-05-01T10:23:26.531Z,101456.78
2019-05-01T10:25:57.390Z,101467.86
2019-05-01T10:28:45.042Z,101456.70
2019-05-01T10:31:34.582Z,101450.23
2019-05-01T10:34:12.809Z,101455.97
2019-05-01T10:36:49.851Z,101450.52
2019-05-01T10:39:19.729Z,101452.50
2019-05-01T10:41:48.126Z,101450.36
2019-05-01T10:44:17.306Z,101445.91
2019-05-01T10:46:46.502Z,101438.78
2019-05-01T10:49:15.662Z,101440.51
2019-05-01T10:51:44.882Z,101439.46
2019-05-01T10:54:14.080Z,101436.36
2019-05-01T10:56:43.268Z,101430.00
2019-05-01T10:59:12.425Z,101427.16
2019-05-01T11:01:47.999Z,101426.22
2019-05-01T11:04:17.380Z,101424.66
2019-05-01T11:06:46.646Z,101418.67
2019-05-01T11:09:16.344Z,101429.36
2019-05-01T11:11:45.507Z,101421.16
2019-05-01T11:14:15.263Z,101420.41
2019-05-01T11:16:44.440Z,101431.09
2019-05-01T11:19:13.590Z,101416.00
2019-05-01T11:21:42.796Z,101413.37
2019-05-01T11:24:11.945Z,101401.97
2019-05-01T11:26:41.170Z,101406.63
2019-05-01T11:29:10.396Z,101409.83
2019-05-01T11:31:58.539Z,101406.53
2019-05-01T11:34:48.064Z,101402.31
2019-05-01T11:37:34.657Z,101406.55
2019-05-01T11:40:14.093Z,101404.02
2019-05-01T11:42:43.314Z,101405.16
2019-05-01T11:45:12.866Z,101398.88
2019-05-01T11:47:42.105Z,101397.66
2019-05-01T11:50:11.664Z,101398.88
2019-05-01T11:52:41.008Z,101399.19
2019-05-01T11:55:10.271Z,101403.55
2019-05-01T11:57:39.624Z,101401.33
2019-05-01T12:00:10.129Z,101399.47
2019-05-01T12:02:39.440Z,101412.02
2019-05-01T12:05:08.874Z,101400.68
2019-05-01T12:07:38.077Z,101397.51
2019-05-01T12:10:07.454Z,101392.53
2019-05-01T12:12:36.683Z,101385.76
2019-05-01T12:15:07.088Z,101385.80
